Time;durP1;ratioP1;P1;durP2;ratioP2;P2;SDS_P1;SDS_P2;PMS_P1;PMS_P2;Temp;Humidity;BMP_temperature;BMP_pressure;BME280_temperature;BME280_humidity;BME280_pressure;Samples;Min_cycle;Max_cycle;Signal;HPM_P1;HPM_P2
2021/07/17 00:02:00;0.00;0.00;0.62;0.00;0.00;0.62;;;;;23.80;76.40;;;;;;2255944;61;990;-72
2021/07/17 00:04:27;26441.00;0.09;46.42;0.00;0.00;0.62;;;;;23.80;76.50;;;;;;2259692;61;1258;-73
2021/07/17 00:06:53;53702.00;0.18;93.59;0.00;0.00;0.62;;;;;23.80;76.40;;;;;;2249110;61;1348;-73
2021/07/17 00:09:18;0.00;0.00;0.62;0.00;0.00;0.62;;;;;23.70;76.50;;;;;;2255795;61;1159;-72
2021/07/17 00:11:44;0.00;0.00;0.62;0.00;0.00;0.62;;;;;23.80;76.60;;;;;;2259840;61;1146;-73
2021/07/17 00:14:10;0.00;0.00;0.62;0.00;0.00;0.62;;;;;23.70;76.50;;;;;;2253002;61;1051;-73
2021/07/17 00:16:36;0.00;0.00;0.62;0.00;0.00;0.62;;;;;23.70;76.50;;;;;;2260415;61;2006;-73
2021/07/17 00:19:01;39132.00;0.13;68.39;0.00;0.00;0.62;;;;;23.70;76.50;;;;;;2260491;61;957;-74
2021/07/17 00:21:27;146493.00;0.49;253.76;0.00;0.00;0.62;;;;;23.70;76.60;;;;;;2256496;61;1151;-73
2021/07/17 00:23:53;0.00;0.00;0.62;0.00;0.00;0.62;;;;;23.70;76.50;;;;;;2260262;61;1020;-73
2021/07/17 00:26:19;0.00;0.00;0.62;0.00;0.00;0.62;;;;;23.70;76.40;;;;;;2260293;61;1231;-73
2021/07/17 00:28:44;91845.00;0.31;159.49;0.00;0.00;0.62;;;;;23.70;76.20;;;;;;2259935;61;1196;-73
2021/07/17 00:31:10;338731.00;1.13;584.49;8261.00;0.03;14.94;;;;;23.70;76.50;;;;;;2260387;61;1140;-73
2021/07/17 00:33:36;0.00;0.00;0.62;0.00;0.00;0.62;;;;;23.70;76.40;;;;;;2249970;61;1358;-73
2021/07/17 00:36:02;0.00;0.00;0.62;0.00;0.00;0.62;;;;;23.70;76.40;;;;;;2256654;61;2020;-73
2021/07/17 00:38:27;0.00;0.00;0.62;0.00;0.00;0.62;;;;;23.70;76.40;;;;;;2256357;61;908;-73
2021/07/17 00:40:53;0.00;0.00;0.62;0.00;0.00;0.62;;;;;23.70;76.20;;;;;;2260440;61;951;-73
2021/07/17 00:43:18;0.00;0.00;0.62;0.00;0.00;0.62;;;;;23.70;76.20;;;;;;2256628;61;940;-73
2021/07/17 00:45:44;0.00;0.00;0.62;0.00;0.00;0.62;;;;;23.70;76.10;;;;;;2256635;61;1376;-74
2021/07/17 00:48:10;0.00;0.00;0.62;0.00;0.00;0.62;;;;;23.70;76.10;;;;;;2260136;61;1335;-73
2021/07/17 00:50:35;74052.00;0.25;128.76;0.00;0.00;0.62;;;;;23.70;76.20;;;;;;2260091;61;1022;-74
2021/07/17 00:53:01;55953.00;0.19;97.48;0.00;0.00;0.62;;;;;23.70;76.20;;;;;;2259975;61;915;-74
2021/07/17 00:55:27;33304.00;0.11;58.30;0.00;0.00;0.62;;;;;23.70;76.10;;;;;;2256428;61;1935;-73
2021/07/17 00:57:53;0.00;0.00;0.62;0.00;0.00;0.62;;;;;23.70;76.10;;;;;;2252809;61;916;-76
2021/07/17 01:00:19;0.00;0.00;0.62;0.00;0.00;0.62;;;;;23.70;76.20;;;;;;2259752;61;887;-78
2021/07/17 01:02:48;0.00;0.00;0.62;0.00;0.00;0.62;;;;;23.70;76.20;;;;;;2256447;61;916;-75
2021/07/17 01:05:15;0.00;0.00;0.62;0.00;0.00;0.62;;;;;23.70;76.20;;;;;;2256237;61;848;-75
2021/07/17 01:07:41;0.00;0.00;0.62;0.00;0.00;0.62;;;;;23.70;76.20;;;;;;2256215;61;958;-75
2021/07/17 01:10:07;98824.00;0.33;171.54;0.00;0.00;0.62;;;;;23.70;76.20;;;;;;2256486;61;1031;-75
2021/07/17 01:12:33;0.00;0.00;0.62;0.00;0.00;0.62;;;;;23.60;76.20;;;;;;2256363;61;971;-75
2021/07/17 01:14:59;97443.00;0.32;169.16;0.00;0.00;0.62;;;;;23.70;76.10;;;;;;2260015;61;841;-75
2021/07/17 01:17:24;0.00;0.00;0.62;0.00;0.00;0.62;;;;;23.70;76.00;;;;;;2256244;61;2371;-73
2021/07/17 01:19:50;0.00;0.00;0.62;0.00;0.00;0.62;;;;;23.70;76.00;;;;;;2256374;61;992;-73
2021/07/17 01:22:16;0.00;0.00;0.62;0.00;0.00;0.62;;;;;23.70;76.00;;;;;;2256338;61;974;-74
2021/07/17 01:24:43;0.00;0.00;0.62;0.00;0.00;0.62;;;;;23.70;76.00;;;;;;2259933;61;1085;-74
2021/07/17 01:27:09;235633.00;0.79;407.24;100471.00;0.33;174.38;;;;;23.70;76.00;;;;;;2256635;61;919;-73
2021/07/17 01:29:35;248892.00;0.83;430.05;41089.00;0.14;71.77;;;;;23.60;76.10;;;;;;2256347;61;927;-73
2021/07/17 01:32:01;122105.00;0.41;211.71;0.00;0.00;0.62;;;;;23.60;76.00;;;;;;2256211;61;966;-74
2021/07/17 01:34:27;52428.00;0.17;91.39;0.00;0.00;0.62;;;;;23.60;76.10;;;;;;2252795;61;835;-73
2021/07/17 01:36:52;280592.00;0.94;484.56;0.00;0.00;0.62;;;;;23.60;76.10;;;;;;2259991;61;2018;-73
2021/07/17 01:39:18;199757.00;0.67;345.51;0.00;0.00;0.62;;;;;23.60;76.20;;;;;;2260014;61;1086;-73
2021/07/17 01:41:46;177006.00;0.59;306.33;59323.00;0.20;103.31;;;;;23.60;76.40;;;;;;2256562;61;992;-73
2021/07/17 01:44:12;0.00;0.00;0.62;0.00;0.00;0.62;;;;;23.60;76.20;;;;;;2252981;61;899;-73
2021/07/17 01:46:37;0.00;0.00;0.62;0.00;0.00;0.62;;;;;23.60;76.20;;;;;;2259861;61;1009;-73
2021/07/17 01:49:03;233802.00;0.78;404.09;50418.00;0.17;87.91;;;;;23.60;76.20;;;;;;2260111;61;898;-74
2021/07/17 01:51:28;0.00;0.00;0.62;0.00;0.00;0.62;;;;;23.60;76.40;;;;;;2256159;61;875;-73
2021/07/17 01:53:58;0.00;0.00;0.62;0.00;0.00;0.62;;;;;23.50;76.40;;;;;;2256587;61;933;-73
2021/07/17 01:56:24;0.00;0.00;0.62;0.00;0.00;0.62;;;;;23.50;76.20;;;;;;2253444;61;1960;-74
2021/07/17 01:58:50;0.00;0.00;0.62;0.00;0.00;0.62;;;;;23.50;76.20;;;;;;2256333;61;911;-73
2021/07/17 02:01:16;0.00;0.00;0.62;0.00;0.00;0.62;;;;;23.50;76.20;;;;;;2260343;61;820;-72
2021/07/17 02:03:45;0.00;0.00;0.62;0.00;0.00;0.62;;;;;23.50;76.20;;;;;;2260235;61;1026;-73
2021/07/17 02:06:11;0.00;0.00;0.62;0.00;0.00;0.62;;;;;23.50;76.20;;;;;;2256222;61;936;-73
2021/07/17 02:08:39;185693.00;0.62;321.29;79579.00;0.27;138.31;;;;;23.50;76.20;;;;;;2260491;61;926;-73
2021/07/17 02:11:05;0.00;0.00;0.62;0.00;0.00;0.62;;;;;23.50;76.20;;;;;;2256119;61;978;-74
2021/07/17 02:13:30;317448.00;1.06;547.91;223480.00;0.74;386.33;;;;;23.50;76.40;;;;;;2260309;61;959;-73
2021/07/17 02:15:57;0.00;0.00;0.62;0.00;0.00;0.62;;;;;23.50;76.40;;;;;;2260181;61;1929;-73
2021/07/17 02:18:25;519919.00;1.73;896.13;237909.00;0.79;411.15;;;;;23.50;76.20;;;;;;2256072;61;1017;-74
2021/07/17 02:20:50;61510.00;0.21;107.09;0.00;0.00;0.62;;;;;23.50;76.10;;;;;;2256686;61;934;-73
2021/07/17 02:23:16;40637.00;0.14;70.99;0.00;0.00;0.62;;;;;23.50;76.10;;;;;;2260152;61;998;-74
2021/07/17 02:25:41;0.00;0.00;0.62;0.00;0.00;0.62;;;;;23.50;76.00;;;;;;2260125;61;919;-73
2021/07/17 02:28:07;76756.00;0.26;133.43;0.00;0.00;0.62;;;;;23.50;76.00;;;;;;2260163;61;1122;-73
2021/07/17 02:30:33;0.00;0.00;0.62;0.00;0.00;0.62;;;;;23.50;75.90;;;;;;2253058;61;1543;-73
2021/07/17 02:32:58;99024.00;0.33;171.89;0.00;0.00;0.62;;;;;23.50;75.90;;;;;;2256284;61;969;-73
2021/07/17 02:35:24;0.00;0.00;0.62;0.00;0.00;0.62;;;;;23.50;75.90;;;;;;2260199;61;945;-74
2021/07/17 02:37:50;0.00;0.00;0.62;0.00;0.00;0.62;;;;;23.50;75.90;;;;;;2256168;61;1960;-73
2021/07/17 02:40:16;0.00;0.00;0.62;0.00;0.00;0.62;;;;;23.50;75.90;;;;;;2256134;61;1305;-73
2021/07/17 02:42:41;196557.00;0.66;340.00;0.00;0.00;0.62;;;;;23.50;75.90;;;;;;2260400;61;995;-74
2021/07/17 02:45:08;0.00;0.00;0.62;0.00;0.00;0.62;;;;;23.50;75.90;;;;;;2260264;61;1007;-74
2021/07/17 02:47:34;0.00;0.00;0.62;0.00;0.00;0.62;;;;;23.50;75.90;;;;;;2259983;61;988;-73
2021/07/17 02:49:59;0.00;0.00;0.62;0.00;0.00;0.62;;;;;23.50;75.90;;;;;;2252733;61;935;-76
2021/07/17 02:52:25;0.00;0.00;0.62;0.00;0.00;0.62;;;;;23.50;76.00;;;;;;2260365;61;876;-76
2021/07/17 02:54:50;0.00;0.00;0.62;0.00;0.00;0.62;;;;;23.50;75.90;;;;;;2260188;61;883;-74
2021/07/17 02:57:16;94171.00;0.31;163.51;0.00;0.00;0.62;;;;;23.50;75.90;;;;;;2259594;61;1951;-73
2021/07/17 02:59:42;0.00;0.00;0.62;0.00;0.00;0.62;;;;;23.40;75.90;;;;;;2260088;61;873;-73
2021/07/17 03:02:07;0.00;0.00;0.62;0.00;0.00;0.62;;;;;23.50;75.90;;;;;;2256172;61;934;-73
2021/07/17 03:04:33;0.00;0.00;0.62;0.00;0.00;0.62;;;;;23.50;75.70;;;;;;2256409;61;1003;-73
2021/07/17 03:06:59;0.00;0.00;0.62;0.00;0.00;0.62;;;;;23.50;75.70;;;;;;2256277;61;1011;-73
2021/07/17 03:09:24;0.00;0.00;0.62;0.00;0.00;0.62;;;;;23.50;75.60;;;;;;2260047;61;1193;-73
2021/07/17 03:11:50;0.00;0.00;0.62;0.00;0.00;0.62;;;;;23.50;75.60;;;;;;2259922;61;910;-73
2021/07/17 03:14:15;0.00;0.00;0.62;0.00;0.00;0.62;;;;;23.50;75.60;;;;;;2259818;61;1034;-73
2021/07/17 03:16:42;0.00;0.00;0.62;0.00;0.00;0.62;;;;;23.50;75.60;;;;;;2255948;61;2024;-74
2021/07/17 03:19:08;0.00;0.00;0.62;0.00;0.00;0.62;;;;;23.50;75.50;;;;;;2259921;61;1024;-73
2021/07/17 03:21:34;0.00;0.00;0.62;0.00;0.00;0.62;;;;;23.50;75.50;;;;;;2256488;61;895;-73
2021/07/17 03:23:59;0.00;0.00;0.62;0.00;0.00;0.62;;;;;23.50;75.50;;;;;;2255863;61;1221;-73
2021/07/17 03:26:25;282967.00;0.94;488.64;132670.00;0.44;229.93;;;;;23.50;75.50;;;;;;2259988;61;1073;-74
2021/07/17 03:28:50;27731.00;0.09;48.66;0.00;0.00;0.62;;;;;23.50;75.50;;;;;;2260058;61;918;-73
2021/07/17 03:31:16;344017.00;1.15;593.58;120125.00;0.40;208.30;;;;;23.50;75.50;;;;;;2259954;61;887;-73
2021/07/17 03:33:41;53013.00;0.18;92.40;0.00;0.00;0.62;;;;;23.50;75.50;;;;;;2259839;61;968;-74
2021/07/17 03:36:07;76147.00;0.25;132.38;0.00;0.00;0.62;;;;;23.50;75.30;;;;;;2259776;61;2017;-75
2021/07/17 03:38:33;273015.00;0.91;471.53;0.00;0.00;0.62;;;;;23.50;75.50;;;;;;2259741;61;913;-73
2021/07/17 03:40:58;217247.00;0.72;375.61;149393.00;0.50;258.76;;;;;23.50;75.50;;;;;;2259995;61;1030;-74
2021/07/17 03:43:24;0.00;0.00;0.62;0.00;0.00;0.62;;;;;23.50;75.50;;;;;;2259692;61;937;-74
2021/07/17 03:45:50;0.00;0.00;0.62;0.00;0.00;0.62;;;;;23.40;75.50;;;;;;2260196;61;1239;-74
2021/07/17 03:48:15;55887.00;0.19;97.37;0.00;0.00;0.62;;;;;23.40;75.50;;;;;;2256209;61;1766;-73
2021/07/17 03:50:41;0.00;0.00;0.62;0.00;0.00;0.62;;;;;23.40;75.60;;;;;;2260620;61;888;-73
2021/07/17 03:53:06;226913.00;0.76;392.24;143842.00;0.48;249.19;;;;;23.40;75.60;;;;;;2260463;61;875;-73
2021/07/17 03:55:32;0.00;0.00;0.62;0.00;0.00;0.62;;;;;23.40;75.60;;;;;;2260239;61;1943;-74
2021/07/17 03:57:58;0.00;0.00;0.62;0.00;0.00;0.62;;;;;23.40;75.60;;;;;;2260759;61;1009;-73
2021/07/17 04:00:23;55260.00;0.18;96.28;0.00;0.00;0.62;;;;;23.40;75.60;;;;;;2256796;61;900;-74
2021/07/17 04:02:49;0.00;0.00;0.62;0.00;0.00;0.62;;;;;23.40;75.50;;;;;;2260393;61;943;-73
2021/07/17 04:05:16;0.00;0.00;0.62;0.00;0.00;0.62;;;;;23.40;75.50;;;;;;2260655;61;1001;-74
2021/07/17 04:07:42;0.00;0.00;0.62;0.00;0.00;0.62;;;;;23.40;75.30;;;;;;2256854;61;1162;-73
2021/07/17 04:10:08;26025.00;0.09;45.70;0.00;0.00;0.62;;;;;23.50;75.20;;;;;;2256431;61;915;-73
2021/07/17 04:12:34;0.00;0.00;0.62;0.00;0.00;0.62;;;;;23.50;75.20;;;;;;2256664;61;987;-73
2021/07/17 04:14:59;0.00;0.00;0.62;0.00;0.00;0.62;;;;;23.50;75.20;;;;;;2260403;61;809;-73
2021/07/17 04:17:25;0.00;0.00;0.62;0.00;0.00;0.62;;;;;23.50;75.10;;;;;;2260264;61;2025;-73
2021/07/17 04:19:51;124773.00;0.42;216.32;0.00;0.00;0.62;;;;;23.50;75.10;;;;;;2256339;61;981;-73
2021/07/17 04:22:16;60893.00;0.20;106.02;0.00;0.00;0.62;;;;;23.50;75.10;;;;;;2260383;61;920;-73
2021/07/17 04:24:42;0.00;0.00;0.62;0.00;0.00;0.62;;;;;23.50;75.10;;;;;;2260521;61;930;-73
2021/07/17 04:27:08;294789.00;0.98;508.96;72632.00;0.24;126.31;;;;;23.50;75.10;;;;;;2260488;61;849;-73
2021/07/17 04:29:33;0.00;0.00;0.62;0.00;0.00;0.62;;;;;23.50;75.10;;;;;;2260325;61;933;-73
2021/07/17 04:31:59;57730.00;0.19;100.55;0.00;0.00;0.62;;;;;23.50;75.10;;;;;;2260290;61;1022;-73
2021/07/17 04:34:24;0.00;0.00;0.62;0.00;0.00;0.62;;;;;23.50;75.10;;;;;;2253271;61;1002;-73
2021/07/17 04:36:50;0.00;0.00;0.62;0.00;0.00;0.62;;;;;23.50;75.10;;;;;;2260401;61;1947;-73
2021/07/17 04:39:16;0.00;0.00;0.62;0.00;0.00;0.62;;;;;23.40;75.10;;;;;;2260203;61;951;-73
2021/07/17 04:41:42;0.00;0.00;0.62;0.00;0.00;0.62;;;;;23.40;75.10;;;;;;2253568;61;1114;-73
2021/07/17 04:44:07;0.00;0.00;0.62;0.00;0.00;0.62;;;;;23.40;75.10;;;;;;2260329;61;896;-73
2021/07/17 04:46:33;77123.00;0.26;134.07;0.00;0.00;0.62;;;;;23.40;75.10;;;;;;2256614;61;1527;-73
2021/07/17 04:48:59;103733.00;0.35;180.02;0.00;0.00;0.62;;;;;23.40;75.10;;;;;;2256642;61;861;-74
2021/07/17 04:51:25;0.00;0.00;0.62;0.00;0.00;0.62;;;;;23.40;75.10;;;;;;2260736;61;959;-73
2021/07/17 04:53:50;0.00;0.00;0.62;0.00;0.00;0.62;;;;;23.40;75.10;;;;;;2260465;61;951;-76
2021/07/17 04:56:16;9025.00;0.03;16.26;0.00;0.00;0.62;;;;;23.40;75.10;;;;;;2256591;61;1943;-75
2021/07/17 04:58:42;0.00;0.00;0.62;0.00;0.00;0.62;;;;;23.40;74.90;;;;;;2256992;61;1062;-76
2021/07/17 05:01:07;149134.00;0.50;258.32;0.00;0.00;0.62;;;;;23.40;74.90;;;;;;2256258;61;896;-76
2021/07/17 05:03:35;0.00;0.00;0.62;0.00;0.00;0.62;;;;;23.40;74.90;;;;;;2260258;61;828;-76
2021/07/17 05:06:01;37680.00;0.13;65.87;0.00;0.00;0.62;;;;;23.40;74.90;;;;;;2260503;61;851;-77
2021/07/17 05:08:27;78649.00;0.26;136.70;0.00;0.00;0.62;;;;;23.40;74.80;;;;;;2260633;61;945;-76
2021/07/17 05:10:52;236348.00;0.79;408.47;47641.00;0.16;83.11;;;;;23.40;74.90;;;;;;2253045;61;970;-76
2021/07/17 05:13:18;91344.00;0.30;158.63;0.00;0.00;0.62;;;;;23.40;74.90;;;;;;2256617;61;967;-76
2021/07/17 05:15:44;109406.00;0.36;189.81;0.00;0.00;0.62;;;;;23.40;74.90;;;;;;2260105;61;2018;-75
2021/07/17 05:18:12;0.00;0.00;0.62;0.00;0.00;0.62;;;;;23.40;74.90;;;;;;2256548;61;944;-73
2021/07/17 05:20:39;8993.00;0.03;16.20;0.00;0.00;0.62;;;;;23.40;74.90;;;;;;2253336;61;1204;-74
2021/07/17 05:23:04;11846.00;0.04;21.15;0.00;0.00;0.62;;;;;23.40;74.90;;;;;;2260240;61;962;-73
2021/07/17 05:25:30;0.00;0.00;0.62;0.00;0.00;0.62;;;;;23.40;74.90;;;;;;2260171;61;926;-73
2021/07/17 05:27:55;0.00;0.00;0.62;0.00;0.00;0.62;;;;;23.40;74.90;;;;;;2256290;61;1117;-74
2021/07/17 05:30:21;34005.00;0.11;59.51;0.00;0.00;0.62;;;;;23.40;75.20;;;;;;2260087;61;918;-74
2021/07/17 05:32:47;0.00;0.00;0.62;0.00;0.00;0.62;;;;;23.40;75.10;;;;;;2256239;61;1268;-74
2021/07/17 05:35:12;0.00;0.00;0.62;0.00;0.00;0.62;;;;;23.40;75.20;;;;;;2253263;61;939;-76
2021/07/17 05:37:38;0.00;0.00;0.62;0.00;0.00;0.62;;;;;23.40;75.30;;;;;;2260275;61;2010;-74
2021/07/17 05:40:05;181517.00;0.61;314.10;0.00;0.00;0.62;;;;;23.40;75.20;;;;;;2256448;61;947;-74
2021/07/17 05:42:30;11909.00;0.04;21.26;0.00;0.00;0.62;;;;;23.30;75.30;;;;;;2256351;61;1315;-76
2021/07/17 05:44:56;84872.00;0.28;147.45;0.00;0.00;0.62;;;;;23.30;75.30;;;;;;2260254;61;961;-74
2021/07/17 05:47:22;55464.00;0.18;96.63;0.00;0.00;0.62;;;;;23.40;75.30;;;;;;2256164;61;1532;-74
2021/07/17 05:49:47;180681.00;0.60;312.66;0.00;0.00;0.62;;;;;23.40;75.20;;;;;;2256515;61;2254;-74
2021/07/17 05:52:13;312804.00;1.04;539.93;89145.00;0.30;154.83;;;;;23.40;75.10;;;;;;2260133;61;1029;-76
2021/07/17 05:54:38;0.00;0.00;0.62;0.00;0.00;0.62;;;;;23.40;74.90;;;;;;2256712;61;1974;-75
2021/07/17 05:57:05;159381.00;0.53;275.97;0.00;0.00;0.62;;;;;23.40;74.90;;;;;;2256519;61;2016;-76
2021/07/17 05:59:31;0.00;0.00;0.62;0.00;0.00;0.62;;;;;23.40;74.90;;;;;;2256590;61;899;-76
2021/07/17 06:01:57;0.00;0.00;0.62;0.00;0.00;0.62;;;;;23.40;74.80;;;;;;2256815;61;1011;-76
2021/07/17 06:04:22;98073.00;0.33;170.25;0.00;0.00;0.62;;;;;23.40;74.80;;;;;;2253475;61;880;-77
2021/07/17 06:06:48;0.00;0.00;0.62;0.00;0.00;0.62;;;;;23.40;74.80;;;;;;2256725;61;928;-76
2021/07/17 06:09:13;35182.00;0.12;61.55;0.00;0.00;0.62;;;;;23.40;74.80;;;;;;2253256;61;1982;-76
2021/07/17 06:11:39;53744.00;0.18;93.66;0.00;0.00;0.62;;;;;23.40;74.80;;;;;;2260391;61;875;-76
2021/07/17 06:14:05;0.00;0.00;0.62;0.00;0.00;0.62;;;;;23.40;74.80;;;;;;2260264;61;880;-76
2021/07/17 06:16:30;0.00;0.00;0.62;0.00;0.00;0.62;;;;;23.40;74.80;;;;;;2260835;61;1931;-77
2021/07/17 06:18:56;110648.00;0.37;191.95;0.00;0.00;0.62;;;;;23.40;74.80;;;;;;2260476;61;1216;-77
2021/07/17 06:21:23;233995.00;0.78;404.42;0.00;0.00;0.62;;;;;23.40;74.80;;;;;;2260504;61;1559;-78
2021/07/17 06:23:48;36405.00;0.12;63.67;0.00;0.00;0.62;;;;;23.50;74.70;;;;;;2256694;61;931;-77
2021/07/17 06:26:14;42240.00;0.14;73.76;0.00;0.00;0.62;;;;;23.50;74.70;;;;;;2260692;61;919;-77
2021/07/17 06:28:39;0.00;0.00;0.62;0.00;0.00;0.62;;;;;23.40;74.70;;;;;;2260882;61;1093;-77
2021/07/17 06:31:05;201843.00;0.67;349.10;0.00;0.00;0.62;;;;;23.40;74.70;;;;;;2260608;61;935;-76
2021/07/17 06:33:31;0.00;0.00;0.62;0.00;0.00;0.62;;;;;23.40;74.70;;;;;;2260692;61;1583;-75
2021/07/17 06:35:56;465788.00;1.55;802.94;207918.00;0.69;359.55;;;;;23.40;74.80;;;;;;2260520;61;2022;-76
2021/07/17 06:38:22;0.00;0.00;0.62;0.00;0.00;0.62;;;;;23.40;74.80;;;;;;2260570;61;1612;-74
2021/07/17 06:40:47;152603.00;0.51;264.29;0.00;0.00;0.62;;;;;23.40;74.70;;;;;;2257461;61;1022;-76
2021/07/17 06:43:13;0.00;0.00;0.62;0.00;0.00;0.62;;;;;23.40;74.80;;;;;;2261957;61;965;-75
2021/07/17 06:45:39;0.00;0.00;0.62;0.00;0.00;0.62;;;;;23.50;74.70;;;;;;2259253;61;1041;-75
2021/07/17 06:48:05;0.00;0.00;0.62;0.00;0.00;0.62;;;;;23.40;74.80;;;;;;2262120;61;903;-75
2021/07/17 06:50:30;107534.00;0.36;186.57;0.00;0.00;0.62;;;;;23.40;74.80;;;;;;2257476;61;927;-75
2021/07/17 06:52:56;12934.00;0.04;23.03;0.00;0.00;0.62;;;;;23.40;74.80;;;;;;2261008;61;1395;-76
2021/07/17 06:55:21;213381.00;0.71;368.95;144920.00;0.48;251.05;;;;;23.40;74.80;;;;;;2261017;61;922;-76
2021/07/17 06:57:47;0.00;0.00;0.62;0.00;0.00;0.62;;;;;23.50;74.80;;;;;;2253717;61;1928;-77
2021/07/17 07:00:15;204054.00;0.68;352.90;87791.00;0.29;152.49;;;;;23.50;74.80;;;;;;2253470;61;912;-76
2021/07/17 07:02:40;0.00;0.00;0.62;0.00;0.00;0.62;;;;;23.50;74.80;;;;;;2252897;61;1014;-76
2021/07/17 07:05:07;164632.00;0.55;285.02;0.00;0.00;0.62;;;;;23.50;74.70;;;;;;2253092;61;1489;-75
2021/07/17 07:07:33;0.00;0.00;0.62;0.00;0.00;0.62;;;;;23.50;74.70;;;;;;2256173;61;921;-78
2021/07/17 07:09:58;71179.00;0.24;123.80;0.00;0.00;0.62;;;;;23.50;74.70;;;;;;2252919;61;905;-75
2021/07/17 07:12:24;119538.00;0.40;207.29;0.00;0.00;0.62;;;;;23.50;74.60;;;;;;2256328;61;974;-76
2021/07/17 07:14:49;189843.00;0.63;328.44;0.00;0.00;0.62;;;;;23.50;74.60;;;;;;2259971;61;958;-75
2021/07/17 07:17:15;0.00;0.00;0.62;0.00;0.00;0.62;;;;;23.50;74.60;;;;;;2256029;61;2018;-75
2021/07/17 07:19:41;153992.00;0.51;266.69;0.00;0.00;0.62;;;;;23.50;74.60;;;;;;2259979;61;1019;-76
2021/07/17 07:22:06;228744.00;0.76;395.39;60081.00;0.20;104.62;;;;;23.50;74.70;;;;;;2256251;61;862;-76
2021/07/17 07:24:32;0.00;0.00;0.62;0.00;0.00;0.62;;;;;23.50;74.70;;;;;;2256243;61;930;-75
2021/07/17 07:26:58;0.00;0.00;0.62;0.00;0.00;0.62;;;;;23.50;74.70;;;;;;2329560;55;1767;-86
2021/07/17 07:29:24;0.00;0.00;0.62;0.00;0.00;0.62;;;;;23.50;74.70;;;;;;2255559;61;3123;-86
2021/07/17 07:31:50;135531.00;0.45;234.87;0.00;0.00;0.62;;;;;23.50;74.70;;;;;;2256126;61;2500;-86
2021/07/17 07:34:16;40655.00;0.14;71.02;0.00;0.00;0.62;;;;;23.50;74.70;;;;;;2261072;61;2154;-86
2021/07/17 07:36:42;0.00;0.00;0.62;0.00;0.00;0.62;;;;;23.50;75.10;;;;;;2259213;61;5594;-87
2021/07/17 07:39:07;309679.00;1.03;534.56;172597.00;0.58;298.74;;;;;23.40;75.30;;;;;;2260461;61;2036;-85
2021/07/17 07:41:33;0.00;0.00;0.62;0.00;0.00;0.62;;;;;23.40;75.60;;;;;;2260513;61;1339;-86
2021/07/17 07:44:04;117224.00;0.39;203.29;0.00;0.00;0.62;;;;;23.40;75.60;;;;;;1635786;61;10000722;-87
2021/07/17 07:46:32;0.00;0.00;0.62;0.00;0.00;0.62;;;;;23.40;75.70;;;;;;1626131;55;10001925;-76
2021/07/17 07:48:59;5655.00;0.02;10.42;0.00;0.00;0.62;;;;;23.40;75.70;;;;;;2240479;61;7434;-76
2021/07/17 07:51:24;15449.00;0.05;27.39;0.00;0.00;0.62;;;;;23.40;75.70;;;;;;2254187;61;5052;-76
2021/07/17 07:53:50;8879.00;0.03;16.01;0.00;0.00;0.62;;;;;23.30;75.90;;;;;;2255248;61;3566;-76
2021/07/17 07:56:15;184343.00;0.61;318.97;0.00;0.00;0.62;;;;;23.40;75.90;;;;;;2255831;61;2097;-76
2021/07/17 07:58:41;11770.00;0.04;21.02;0.00;0.00;0.62;;;;;23.40;76.00;;;;;;2254553;61;2848;-76
2021/07/17 08:01:07;231751.00;0.77;400.56;0.00;0.00;0.62;;;;;23.30;76.00;;;;;;2255550;61;3540;-75
2021/07/17 08:03:32;0.00;0.00;0.62;0.00;0.00;0.62;;;;;23.30;76.00;;;;;;2255535;61;3346;-76
2021/07/17 08:05:58;0.00;0.00;0.62;0.00;0.00;0.62;;;;;23.30;76.10;;;;;;2255379;61;3535;-76
2021/07/17 08:08:24;0.00;0.00;0.62;0.00;0.00;0.62;;;;;23.30;76.20;;;;;;2254686;61;2330;-76
2021/07/17 08:10:49;1011085.00;3.37;1752.11;351082.00;1.17;605.72;;;;;23.30;76.10;;;;;;2255229;61;3574;-75
2021/07/17 08:13:15;0.00;0.00;0.62;0.00;0.00;0.62;;;;;23.30;76.10;;;;;;2261558;61;2477;-76
2021/07/17 08:15:41;42120.00;0.14;73.56;0.00;0.00;0.62;;;;;23.30;76.10;;;;;;2255863;61;3462;-76
2021/07/17 08:18:07;2576.00;0.01;5.08;0.00;0.00;0.62;;;;;23.30;76.20;;;;;;2262354;61;3638;-76
2021/07/17 08:20:33;11068.00;0.04;19.80;0.00;0.00;0.62;;;;;23.30;76.20;;;;;;2253471;61;3540;-76
2021/07/17 08:22:58;50421.00;0.17;87.91;0.00;0.00;0.62;;;;;23.30;76.20;;;;;;2254710;61;3419;-76
2021/07/17 08:25:24;60963.00;0.20;106.14;0.00;0.00;0.62;;;;;23.30;76.20;;;;;;2255591;61;2445;-75
2021/07/17 08:27:50;11388.00;0.04;20.35;0.00;0.00;0.62;;;;;23.40;76.20;;;;;;2255748;61;5123;-76
2021/07/17 08:30:16;0.00;0.00;0.62;0.00;0.00;0.62;;;;;23.40;76.20;;;;;;2256330;61;4259;-77
2021/07/17 08:32:41;7097.00;0.02;12.92;0.00;0.00;0.62;;;;;23.40;76.40;;;;;;2255208;61;3545;-77
2021/07/17 08:35:08;0.00;0.00;0.62;0.00;0.00;0.62;;;;;23.30;77.30;;;;;;2255896;61;3643;-77
2021/07/17 08:37:36;35460.00;0.12;62.03;0.00;0.00;0.62;;;;;23.20;77.50;;;;;;2254772;61;3239;-77
2021/07/17 08:40:04;74308.00;0.25;129.20;0.00;0.00;0.62;;;;;23.20;77.80;;;;;;2256639;61;3618;-77
2021/07/17 08:42:30;675555.00;2.25;1164.87;216237.00;0.72;373.87;;;;;23.20;78.00;;;;;;2262664;61;2368;-77
2021/07/17 08:44:56;16797.00;0.06;29.72;0.00;0.00;0.62;;;;;23.20;78.20;;;;;;2255639;61;2460;-77
2021/07/17 08:47:21;131769.00;0.44;228.38;0.00;0.00;0.62;;;;;23.20;78.30;;;;;;2258798;61;3510;-77
2021/07/17 08:49:47;165822.00;0.55;287.07;0.00;0.00;0.62;;;;;23.20;78.40;;;;;;2256107;61;3460;-77
2021/07/17 08:52:13;797866.00;2.66;1377.40;0.00;0.00;0.62;;;;;23.20;78.70;;;;;;2258899;61;3737;-77
2021/07/17 08:54:42;130472.00;0.43;226.14;0.00;0.00;0.62;;;;;23.20;78.60;;;;;;2255270;61;3293;-77
2021/07/17 08:57:10;99757.00;0.33;173.15;0.00;0.00;0.62;;;;;23.20;78.40;;;;;;2255719;61;2619;-77
2021/07/17 08:59:37;765325.00;2.55;1320.72;0.00;0.00;0.62;;;;;23.20;78.40;;;;;;2254977;61;2376;-77
2021/07/17 09:02:04;1008528.00;3.36;1747.58;0.00;0.00;0.62;;;;;23.20;78.60;;;;;;2256268;61;2601;-77
2021/07/17 09:04:30;470262.00;1.57;810.64;0.00;0.00;0.62;;;;;23.20;78.60;;;;;;2257084;61;3457;-77
2021/07/17 09:06:55;37453.00;0.12;65.48;0.00;0.00;0.62;;;;;23.20;77.30;;;;;;2255851;61;3866;-77
2021/07/17 09:09:31;311883.00;1.04;538.35;0.00;0.00;0.62;;;;;23.20;77.50;;;;;;2256401;61;3702;-77
2021/07/17 09:11:58;715550.00;2.39;1234.21;52566.00;0.18;91.62;;;;;23.10;77.70;;;;;;2255577;61;2339;-77
2021/07/17 09:14:44;308797.00;1.03;533.04;0.00;0.00;0.62;;;;;23.10;78.20;;;;;;2258980;61;3558;-77
2021/07/17 09:17:10;630941.00;2.10;1087.68;0.00;0.00;0.62;;;;;23.10;78.60;;;;;;2255883;61;5388;-77
2021/07/17 09:19:35;415629.00;1.39;716.67;145613.00;0.49;252.25;;;;;23.00;78.70;;;;;;2255754;61;3583;-77
2021/07/17 09:22:01;716115.00;2.39;1235.20;259617.00;0.87;448.49;;;;;23.10;79.00;;;;;;2254671;61;3313;-77
2021/07/17 09:24:26;31514.00;0.11;55.20;0.00;0.00;0.62;;;;;23.10;78.80;;;;;;2256197;61;3438;-77
2021/07/17 09:26:54;80377.00;0.27;139.69;0.00;0.00;0.62;;;;;23.00;79.00;;;;;;2256013;61;3590;-77
2021/07/17 09:29:20;333647.00;1.11;575.75;0.00;0.00;0.62;;;;;23.00;79.10;;;;;;2251500;61;3434;-77
2021/07/17 09:31:48;918015.00;3.06;1587.78;0.00;0.00;0.62;;;;;23.00;79.10;;;;;;2254419;61;3527;-77
2021/07/17 09:34:14;171598.00;0.57;297.02;0.00;0.00;0.62;;;;;22.90;79.20;;;;;;2256230;61;2417;-77
2021/07/17 09:36:57;394863.00;1.32;680.97;0.00;0.00;0.62;;;;;22.90;79.10;;;;;;2254875;61;3668;-77
2021/07/17 09:39:27;184363.00;0.61;319.00;71286.00;0.24;123.98;;;;;22.90;79.10;;;;;;2256313;61;3118;-77
2021/07/17 09:42:07;106659.00;0.36;185.06;0.00;0.00;0.62;;;;;22.90;79.20;;;;;;2251792;61;3460;-77
2021/07/17 09:44:34;89083.00;0.30;154.72;0.00;0.00;0.62;;;;;22.90;79.30;;;;;;2255378;61;3369;-77
2021/07/17 09:46:59;269656.00;0.90;465.75;0.00;0.00;0.62;;;;;22.80;79.60;;;;;;2261894;61;3468;-77
2021/07/17 09:49:26;531434.00;1.77;915.96;16287.00;0.05;28.84;;;;;22.80;79.90;;;;;;2262036;61;4228;-77
2021/07/17 09:52:11;148454.00;0.49;257.14;0.00;0.00;0.62;;;;;22.80;79.70;;;;;;2256353;61;3729;-77
2021/07/17 09:55:03;293131.00;0.98;506.11;137154.00;0.46;237.66;;;;;22.90;79.50;;;;;;2255093;61;3464;-77
2021/07/17 09:57:30;169836.00;0.57;293.98;0.00;0.00;0.62;;;;;22.90;79.50;;;;;;2255883;61;2685;-77
2021/07/17 10:00:06;807147.00;2.69;1393.59;0.00;0.00;0.62;;;;;22.90;79.00;;;;;;2256079;61;3587;-77
2021/07/17 10:02:35;156480.00;0.52;270.97;0.00;0.00;0.62;;;;;23.00;78.80;;;;;;2263150;61;2828;-77
2021/07/17 10:05:05;443886.00;1.48;765.27;0.00;0.00;0.62;;;;;23.00;79.10;;;;;;2256378;61;2099;-77
2021/07/17 10:07:30;374215.00;1.25;645.48;0.00;0.00;0.62;;;;;22.90;79.50;;;;;;2256533;61;3618;-77
2021/07/17 10:09:56;306064.00;1.02;528.34;0.00;0.00;0.62;;;;;22.90;79.70;;;;;;2256600;61;2137;-77